| Date | Time | Temp. (oF) | Dew Point (oF) | Rel. Hum. (%) | Press. (in.) | Wind Dir. (deg.) | Wind Speed (mph) | Hourly Rainfall (i n.) |
|
|---|---|---|---|---|---|---|---|---|---|
| 1 | 12/25 | 24:00 | 19 | 7 | 61 | 30.43 | 310 | 2 | 0.00 |
| 2 | 12/24 | 23:00 | 18 | 6 | 61 | 30.42 | 310 | 1 | 0.00 |
| 3 | 12/24 | 22:00 | 19 | 7 | 61 | 30.41 | 310 | 1 | 0.00 |
| 4 | 12/24 | 21:00 | 19 | 9 | 65 | 30.40 | 310 | 2 | 0.00 |
| 5 | 12/24 | 20:00 | 20 | 9 | 62 | 30.39 | 310 | 1 | 0.00 |
| 6 | 12/24 | 19:00 | 21 | 7 | 56 | 30.37 | 310 | 6 | 0.00 |
| 7 | 12/24 | 18:00 | 22 | 7 | 52 | 30.35 | 10 | 2 | 0.00 |
| 8 | 12/24 | 17:00 | 23 | 5 | 46 | 30.32 | 300 | 9 | 0.00 |
| 9 | 12/24 | 16:00 | 24 | 4 | 42 | 30.31 | 310 | 4 | 0.00 |
| 10 | 12/24 | 15:00 | 26 | 4 | 40 | 30.30 | 280 | 13 | 0.00 |
| 11 | 12/24 | 14:00 | 27 | 6 | 42 | 30.30 | 320 | 6 | 0.00 |
| 12 | 12/24 | 13:00 | 26 | 7 | 45 | 30.31 | 270 | 10 | 0.00 |
| 13 | 12/24 | 12:00 | 26 | 8 | 47 | 30.33 | 250 | 9 | 0.00 |
| 14 | 12/24 | 11:00 | 24 | 6 | 47 | 30.35 | 340 | 4 | 0.00 |
| 15 | 12/24 | 10:00 | 24 | 6 | 47 | 30.35 | 300 | 10 | 0.00 |
| 16 | 12/24 | 09:00 | 23 | 8 | 53 | 30.34 | 310 | 4 | 0.00 |
| 17 | 12/24 | 08:00 | 20 | 7 | 59 | 30.33 | 330 | 0 | 0.00 |
| 18 | miss | miss | miss | miss | miss | miss | miss | miss | |
| 19 | 12/23 | 17:28 | 37 | 18 | 46 | 30.23 | 320 | 6 | 0.00 |
| 20 | miss | miss | miss | miss | miss | miss | miss | miss | |
| 21 | 12/23 | 17:26 | 37 | 18 | 46 | 30.23 | 260 | 12 | 0.00 |
| 22 | miss | miss | miss | miss | miss | miss | miss | miss | |
| 23 | 12/23 | 17:24 | 38 | 18 | 46 | 30.23 | 290 | 6 | 0.00 |
| 24 | miss | miss | miss | miss | miss | miss | miss | miss | |
| 25 | 12/23 | 17:22 | 38 | 19 | 47 | 30.23 | 280 | 7 | 0.00 |
| 26 | miss | miss | miss | miss | miss | miss | miss | miss | |
| 27 | 12/23 | 17:22 | 38 | 19 | 47 | 30.23 | 280 | 7 | 0.00 |
| 28 | miss | miss | miss | miss | miss | miss | miss | miss | |
| 29 | 12/23 | 17:22 | 38 | 19 | 47 | 30.23 | 280 | 7 | 0.00 |
| 30 | miss | miss | miss | miss | miss | miss | miss | miss | |
| 31 | 12/23 | 17:22 | 38 | 19 | 47 | 30.23 | 280 | 7 | 0.00 |
| 32 | 12/23 | 17:00 | 38 | 20 | 50 | 30.22 | 300 | 7 | 0.00 |
| 33 | 12/23 | 16:00 | 39 | 21 | 50 | 30.21 | 310 | 4 | 0.00 |
| 34 | 12/23 | 15:00 | 40 | 21 | 47 | 30.21 | 280 | 10 | 0.00 |
| 35 | 12/23 | 14:00 | 41 | 20 | 44 | 30.22 | 290 | 9 | 0.00 |
| 36 | 12/23 | 13:00 | 41 | 23 | 50 | 30.22 | 230 | 4 | 0.00 |
| 37 | 12/23 | 12:00 | 39 | 23 | 54 | 30.27 | 130 | 4 | 0.00 |
| 38 | 12/23 | 11:00 | 35 | 21 | 58 | 30.34 | 150 | 6 | 0.00 |
| 39 | 12/23 | 10:00 | 32 | 16 | 53 | 30.36 | 310 | 4 | 0.00 |
| 40 | 12/23 | 09:00 | 29 | 18 | 64 | 30.36 | 350 | 0 | 0.00 |
| 41 | 12/23 | 08:00 | 24 | 19 | 82 | 30.36 | 350 | 0 | 0.00 |
| 42 | 12/23 | 07:00 | 22 | 15 | 76 | 30.36 | 350 | 0 | 0.00 |
| 43 | 12/23 | 06:00 | 21 | 17 | 86 | 30.35 | 350 | 0 | 0.00 |
| 44 | 12/23 | 05:00 | 21 | 17 | 86 | 30.37 | 350 | 0 | 0.00 |
| 45 | 12/23 | 04:00 | 22 | 18 | 85 | 30.38 | 350 | 0 | 0.00 |
| 46 | 12/23 | 03:00 | 22 | 18 | 86 | 30.39 | 350 | 0 | 0.00 |
| 47 | 12/23 | 02:00 | 22 | 17 | 84 | 30.39 | 350 | 0 | 0.00 |
| 48 | 12/23 | 01:00 | 23 | 18 | 83 | 30.40 | 350 | 0 | 0.00 |
| 49 | 12/23 | 24:00 | 24 | 19 | 81 | 30.42 | 350 | 1 | 0.00 |
| 50 | 12/22 | 23:00 | 24 | 17 | 75 | 30.42 | 350 | 0 | 0.00 |
| 51 | 12/22 | 22:00 | 26 | 18 | 72 | 30.43 | 350 | 0 | 0.00 |
| 52 | 12/22 | 21:00 | 26 | 17 | 71 | 30.43 | 350 | 0 | 0.00 |
| 53 | 12/22 | 20:00 | 27 | 16 | 64 | 30.42 | 350 | 0 | 0.00 |
| 54 | 12/22 | 19:00 | 29 | 17 | 61 | 30.41 | 350 | 0 | 0.00 |
| 55 | 12/22 | 18:00 | 30 | 16 | 57 | 30.39 | 350 | 0 | 0.00 |
| 56 | 12/22 | 17:00 | 32 | 11 | 43 | 30.38 | 350 | 1 | 0.00 |
| 57 | 12/22 | 16:00 | 34 | 9 | 35 | 30.38 | 330 | 4 | 0.00 |
| 58 | 12/22 | 15:00 | 36 | 10 | 34 | 30.37 | 290 | 10 | 0.00 |
| 59 | 12/22 | 14:00 | 36 | 9 | 33 | 30.37 | 310 | 6 | 0.00 |
| 60 | miss | miss | miss | miss | miss | miss | miss | miss | |
| 61 | 04/16 | 17:10 | 36 | 8 | 32 | 30.38 | 330 | 9 | 0.00 |
| 62 | miss | miss | miss | miss | miss | miss | miss | miss | |
| 63 | 04/16 | 17:08 | 36 | 8 | 32 | 30.38 | 270 | 7 | 0.00 |
| 64 | miss | miss | miss | miss | miss | miss | miss | miss | |
| 65 | 04/16 | 17:06 | 36 | 8 | 32 | 30.38 | 330 | 7 | 0.00 |
| 66 | miss | miss | miss | miss | miss | miss | miss | miss | |
| 67 | 04/16 | 17:04 | 36 | 8 | 31 | 30.38 | 310 | 6 | 0.00 |
| 68 | miss | miss | miss | miss | miss | miss | miss | miss | |
| 69 | 04/16 | 17:02 | 36 | 7 | 30 | 30.37 | 360 | 7 | 0.00 |
| 70 | miss | miss | miss | miss | miss | miss | miss | miss | |
| 71 | 04/16 | 17:00 | 36 | 8 | 31 | 30.37 | 10 | 7 | 0.00 |
| 72 | 04/16 | 17:99 | 36 | 8 | 31 | 30.37 | 10 | 7 | 0.00 |
| 73 | miss | miss | miss | miss | miss | miss | miss | miss | |
| 74 | 04/16 | 17:98 | 36 | 8 | 31 | 30.37 | 330 | 4 | 0.00 |
| 75 | miss | miss | miss | miss | miss | miss | miss | miss | |
| 76 | 04/16 | 17:98 | 36 | 8 | 31 | 30.37 | 330 | 4 | 0.00 |
| 77 | miss | miss | miss | miss | miss | miss | miss | miss | |
| 78 | 04/16 | 17:98 | 36 | 8 | 31 | 30.37 | 330 | 4 | 0.00 |
| 79 | 04/16 | 17:98 | 36 | 8 | 31 | 30.37 | 330 | 4 | 0.00 |
| 80 | miss | miss | miss | miss | miss | miss | miss | miss | |
| 81 | 12/22 | 11:12 | 34 | 10 | 38 | 30.39 | 330 | 15 | 0.00 |
| 82 | miss | miss | miss | miss | miss | miss | miss | miss | |
| 83 | 12/22 | 11:12 | 34 | 10 | 38 | 30.39 | 330 | 15 | 0.00 |
| 84 | miss | miss | miss | miss | miss | miss | miss | miss | |
| 85 | 12/22 | 11:12 | 34 | 10 | 38 | 30.39 | 330 | 15 | 0.00 |
| 86 | 12/22 | 11:00 | 34 | 9 | 35 | 30.39 | 290 | 10 | 0.00 |
| 87 | 12/22 | 10:00 | 33 | 12 | 43 | 30.38 | 250 | 9 | 0.00 |
| 88 | 12/22 | 09:00 | 32 | 12 | 45 | 30.37 | 330 | 7 | 0.00 |
| 89 | 12/22 | 08:00 | 32 | 14 | 48 | 30.35 | 310 | 2 | 0.00 |
| 90 | 12/22 | 07:00 | 31 | 17 | 57 | 30.34 | 300 | 2 | 0.00 |